Nearby METAR Reports

 

KCXY - Harrisburg, Pennsylvania, USA
Distance from station: E 9mi, 14km
Updated: Wed, 01-Apr-2020 4:56pm EDT
Mostly cloudy
Mostly cloudy
 Wind from N
Wind: N 10 mph , 17 km/h
Temperature: 57°F , 14°C
Dew Point: 36°F , 2°C
Humidity: 44%
Barometer: 29.78 inHg , 1008.5 hPa
Clouds: Mostly cloudy
Visibility: 10 miles , 16 km
Cloud details: Partly cloudy 4400 ft
Mostly cloudy 6500 ft
2020/04/01 20:56 KCXY 012056Z 36009KT 10SM SCT044 BKN065 14/02 A2978 RMK AO2 SLP086 T01390022 55008
KMDT - Middletown, Pennsylvania, USA
Distance from station: E 13mi, 21km
Updated: Wed, 01-Apr-2020 4:56pm EDT
Mostly cloudy
Mostly cloudy
 Wind from N
Wind: N 9 mph , 15 km/h, Gust: 20 mph , 31 km/h
Temperature: 54°F , 12°C
Dew Point: 36°F , 2°C
Humidity: 51%
Barometer: 29.77 inHg , 1008.1 hPa
Clouds: Mostly cloudy
Visibility: 10 miles , 16 km
Cloud details: Few Clouds 4500 ft
Partly cloudy 5500 ft
Mostly cloudy 7000 ft
2020/04/01 20:56 KMDT 012056Z 35008G17KT 10SM FEW045 SCT055 BKN070 12/02 A2977 RMK AO2 SLP083 T01170017 56008
 
KTHV - York, Pennsylvania, USA
Distance from station: SSE 22mi, 36km
Updated: Wed, 01-Apr-2020 4:53pm EDT
Overcast
Overcast
 Wind from NNE
Wind: NNE 9 mph , 15 km/h
Temperature: 54°F , 12°C
Dew Point: 37°F , 3°C
Humidity: 54%
Barometer: 29.77 inHg , 1008.1 hPa
Clouds: Overcast
Visibility: 10 miles , 16 km
Cloud details: Mostly cloudy 4700 ft
Mostly cloudy 6000 ft
Overcast 7000 ft
2020/04/01 20:53 KTHV 012053Z AUTO 03008KT 10SM BKN047 BKN060 OVC070 12/03 A2977 RMK AO2 SLP086 T01220028 56009
KMUI - Muir Aaf/Indiant, Pennsylvania, USA
Distance from station: ENE 27mi, 44km
Updated: Wed, 01-Apr-2020 4:56pm EDT
Mostly cloudy
Mostly cloudy
 Wind from N
Wind: N 12 mph , 19 km/h, Gust: 22 mph , 35 km/h
Temperature: 54°F , 12°C
Dew Point: 30°F , -1°C
Humidity: 41%
Barometer: 29.76 inHg , 1007.8 hPa
Clouds: Mostly cloudy
Visibility: 10 miles , 16 km
Cloud details: Mostly cloudy 5000 ft
2020/04/01 20:56 KMUI 012056Z 35010G19KT 10SM BKN050 12/M01 A2976 RMK AO2A SLP082 T01231009 56009
 
KLNS - Lancaster, Pennsylvania, USA
Distance from station: E 38mi, 62km
Updated: Wed, 01-Apr-2020 4:53pm EDT
Overcast
Overcast
 Wind from N
Wind: N 10 mph , 17 km/h
Temperature: 54°F , 12°C
Dew Point: 34°F , 1°C
Humidity: 47%
Barometer: 29.76 inHg , 1007.8 hPa
Clouds: Overcast
Visibility: 10 miles , 16 km
Cloud details: Overcast 6000 ft
2020/04/01 20:53 KLNS 012053Z 35009KT 10SM OVC060 12/01 A2976 RMK AO2 SLP079 T01170011 56009 $
KRYT - Fountain Dale, Pennsylvania, USA
Distance from station: SSW 40mi, 65km
Updated: Mon, 13-Nov-2017 7:53am EST
NOT Current
Mist, Overcast
Mist, Overcast
 Wind from calm
Wind: Calm
Temperature: 37°F , 3°C
Dew Point: 34°F , 1°C
Humidity: 87%
Barometer: 30.31 inHg , 1026.4 hPa
Summary: Mist
Clouds: Overcast
Visibility: 5 miles , 8 km
Cloud details: Overcast 700 ft
2017/11/13 12:53 KRYT 131253Z AUTO 00000KT 5SM BR OVC007 03/01 A3031 RMK AO2 SLP275 T00280011 TSNO $
 
KSEG - Selinsgrove, Pennsylvania, USA
Distance from station: N 42mi, 67km
Updated: Wed, 01-Apr-2020 4:53pm EDT
Partly cloudy
Partly cloudy
 Wind from N
Wind: N 13 mph , 20 km/h, Gust: 21 mph , 33 km/h
Temperature: 55°F , 13°C
Dew Point: 32°F , 0°C
Humidity: 41%
Barometer: 29.79 inHg , 1008.8 hPa
Clouds: Partly cloudy
Visibility: 10 miles , 16 km
Cloud details: Partly cloudy 6000 ft
2020/04/01 20:53 KSEG 012053Z AUTO 36011G18KT 10SM SCT060 13/00 A2979 RMK AO2 SLP089 60000 T01280000 55012
KDMW - Carroll Cnty, Maryland, USA
Distance from station: S 43mi, 69km
Updated: Wed, 01-Apr-2020 4:40pm EDT

 Wind from N
Wind: N 5 mph , 7 km/h
Visibility: 10 miles , 16 km
2020/04/01 20:40 KDMW 012040Z AUTO 36004KT 10SM SCT0 13/03 A2978 RMK AO2
 
KRSP - Camp David, Maryland, USA
Distance from station: SSW 46mi, 74km
Updated: Fri, 20-Mar-2020 2:43am EDT
NOT Current
Mist, Overcast
Mist, Overcast
 Wind from SW
Wind: SW 12 mph , 19 km/h, Gust: 20 mph , 31 km/h
Temperature: 55°F , 13°C
Dew Point: 55°F , 13°C
Humidity: 100%
Barometer: 30.06 inHg , 1017.9 hPa
Summary: Mist
Clouds: Overcast
Visibility: 2 miles , 3 km
Cloud details: Overcast 100 ft
2020/03/20 06:43 KRSP 200643Z AUTO 23010G17KT 2SM BR OVC001 13/13 A3006 RMK AO2 $